sensor_id;sensor_type;location;lat;lon;timestamp;P1;durP1;ratioP1;P2;durP2;ratioP2
56653;SDS011;45096;52.302;4.634;2023-10-09T00:02:04;9.18;;;6.38;;
56653;SDS011;45096;52.302;4.634;2023-10-09T00:04:31;10.90;;;6.50;;
56653;SDS011;45096;52.302;4.634;2023-10-09T00:06:56;7.03;;;6.15;;
56653;SDS011;45096;52.302;4.634;2023-10-09T00:09:22;8.50;;;6.57;;
56653;SDS011;45096;52.302;4.634;2023-10-09T00:11:47;6.82;;;6.13;;
56653;SDS011;45096;52.302;4.634;2023-10-09T00:14:13;7.97;;;6.47;;
56653;SDS011;45096;52.302;4.634;2023-10-09T00:16:38;9.57;;;6.57;;
56653;SDS011;45096;52.302;4.634;2023-10-09T00:19:05;10.07;;;6.60;;
56653;SDS011;45096;52.302;4.634;2023-10-09T00:21:32;8.27;;;5.25;;
56653;SDS011;45096;52.302;4.634;2023-10-09T00:23:57;7.03;;;5.80;;
56653;SDS011;45096;52.302;4.634;2023-10-09T00:26:23;8.50;;;6.85;;
56653;SDS011;45096;52.302;4.634;2023-10-09T00:28:48;10.98;;;6.07;;
56653;SDS011;45096;52.302;4.634;2023-10-09T00:31:14;6.93;;;5.30;;
56653;SDS011;45096;52.302;4.634;2023-10-09T00:33:39;6.78;;;5.63;;
56653;SDS011;45096;52.302;4.634;2023-10-09T00:36:05;7.78;;;5.97;;
56653;SDS011;45096;52.302;4.634;2023-10-09T00:38:32;11.07;;;6.00;;
56653;SDS011;45096;52.302;4.634;2023-10-09T00:40:57;8.32;;;5.50;;
56653;SDS011;45096;52.302;4.634;2023-10-09T00:43:22;8.32;;;5.75;;
56653;SDS011;45096;52.302;4.634;2023-10-09T00:45:48;6.78;;;5.13;;
56653;SDS011;45096;52.302;4.634;2023-10-09T00:48:13;8.68;;;5.07;;
56653;SDS011;45096;52.302;4.634;2023-10-09T00:50:39;6.25;;;4.45;;
56653;SDS011;45096;52.302;4.634;2023-10-09T00:53:05;6.32;;;5.13;;
56653;SDS011;45096;52.302;4.634;2023-10-09T00:55:32;5.68;;;5.03;;
56653;SDS011;45096;52.302;4.634;2023-10-09T00:57:58;7.35;;;4.97;;
56653;SDS011;45096;52.302;4.634;2023-10-09T01:00:23;5.78;;;5.10;;
56653;SDS011;45096;52.302;4.634;2023-10-09T01:02:49;6.68;;;4.38;;
56653;SDS011;45096;52.302;4.634;2023-10-09T01:05:14;7.88;;;4.82;;
56653;SDS011;45096;52.302;4.634;2023-10-09T01:07:40;7.13;;;4.75;;
56653;SDS011;45096;52.302;4.634;2023-10-09T01:10:05;8.15;;;5.43;;
56653;SDS011;45096;52.302;4.634;2023-10-09T01:12:33;7.13;;;4.30;;
56653;SDS011;45096;52.302;4.634;2023-10-09T01:14:58;4.85;;;4.38;;
56653;SDS011;45096;52.302;4.634;2023-10-09T01:17:24;7.85;;;4.70;;
56653;SDS011;45096;52.302;4.634;2023-10-09T01:19:49;6.93;;;4.40;;
56653;SDS011;45096;52.302;4.634;2023-10-09T01:22:15;6.22;;;4.25;;
56653;SDS011;45096;52.302;4.634;2023-10-09T01:24:42;6.57;;;4.35;;
56653;SDS011;45096;52.302;4.634;2023-10-09T01:27:07;7.05;;;4.25;;
56653;SDS011;45096;52.302;4.634;2023-10-09T01:29:33;4.72;;;3.85;;
56653;SDS011;45096;52.302;4.634;2023-10-09T01:31:58;10.27;;;5.03;;
56653;SDS011;45096;52.302;4.634;2023-10-09T01:34:24;4.75;;;3.85;;
56653;SDS011;45096;52.302;4.634;2023-10-09T01:36:50;6.53;;;4.30;;
56653;SDS011;45096;52.302;4.634;2023-10-09T01:39:16;5.88;;;4.25;;
56653;SDS011;45096;52.302;4.634;2023-10-09T01:41:43;5.28;;;4.18;;
56653;SDS011;45096;52.302;4.634;2023-10-09T01:44:08;9.15;;;4.72;;
56653;SDS011;45096;52.302;4.634;2023-10-09T01:46:33;6.13;;;4.47;;
56653;SDS011;45096;52.302;4.634;2023-10-09T01:48:59;8.48;;;4.13;;
56653;SDS011;45096;52.302;4.634;2023-10-09T01:51:24;6.40;;;4.43;;
56653;SDS011;45096;52.302;4.634;2023-10-09T01:53:50;5.88;;;3.83;;
56653;SDS011;45096;52.302;4.634;2023-10-09T01:56:15;5.20;;;3.85;;
56653;SDS011;45096;52.302;4.634;2023-10-09T01:58:42;7.85;;;4.60;;
56653;SDS011;45096;52.302;4.634;2023-10-09T02:01:08;4.32;;;3.28;;
56653;SDS011;45096;52.302;4.634;2023-10-09T02:03:33;9.70;;;4.43;;
56653;SDS011;45096;52.302;4.634;2023-10-09T02:05:58;6.30;;;4.03;;
56653;SDS011;45096;52.302;4.634;2023-10-09T02:08:24;5.00;;;3.85;;
56653;SDS011;45096;52.302;4.634;2023-10-09T02:10:49;6.80;;;4.30;;
56653;SDS011;45096;52.302;4.634;2023-10-09T02:13:15;5.80;;;3.90;;
56653;SDS011;45096;52.302;4.634;2023-10-09T02:15:42;8.65;;;3.90;;
56653;SDS011;45096;52.302;4.634;2023-10-09T02:18:08;4.53;;;3.67;;
56653;SDS011;45096;52.302;4.634;2023-10-09T02:20:34;6.30;;;3.78;;
56653;SDS011;45096;52.302;4.634;2023-10-09T02:22:59;6.05;;;3.72;;
56653;SDS011;45096;52.302;4.634;2023-10-09T02:25:24;7.00;;;3.92;;
56653;SDS011;45096;52.302;4.634;2023-10-09T02:27:50;7.45;;;4.15;;
56653;SDS011;45096;52.302;4.634;2023-10-09T02:30:15;7.70;;;4.20;;
56653;SDS011;45096;52.302;4.634;2023-10-09T02:32:43;5.68;;;4.38;;
56653;SDS011;45096;52.302;4.634;2023-10-09T02:35:09;9.07;;;4.72;;
56653;SDS011;45096;52.302;4.634;2023-10-09T02:37:35;8.10;;;4.47;;
56653;SDS011;45096;52.302;4.634;2023-10-09T02:40:00;8.82;;;4.20;;
56653;SDS011;45096;52.302;4.634;2023-10-09T02:42:26;8.20;;;4.20;;
56653;SDS011;45096;52.302;4.634;2023-10-09T02:44:51;4.18;;;3.67;;
56653;SDS011;45096;52.302;4.634;2023-10-09T02:47:17;6.53;;;4.20;;
56653;SDS011;45096;52.302;4.634;2023-10-09T02:49:44;7.93;;;4.45;;
56653;SDS011;45096;52.302;4.634;2023-10-09T02:52:09;6.07;;;3.55;;
56653;SDS011;45096;52.302;4.634;2023-10-09T02:54:35;5.75;;;3.70;;
56653;SDS011;45096;52.302;4.634;2023-10-09T02:57:00;4.55;;;4.13;;
56653;SDS011;45096;52.302;4.634;2023-10-09T02:59:26;8.25;;;4.18;;
56653;SDS011;45096;52.302;4.634;2023-10-09T03:01:51;7.88;;;4.43;;
56653;SDS011;45096;52.302;4.634;2023-10-09T03:04:16;7.53;;;4.70;;
56653;SDS011;45096;52.302;4.634;2023-10-09T03:06:43;6.10;;;4.57;;
56653;SDS011;45096;52.302;4.634;2023-10-09T03:09:09;6.85;;;4.55;;
56653;SDS011;45096;52.302;4.634;2023-10-09T03:11:34;8.60;;;4.30;;
56653;SDS011;45096;52.302;4.634;2023-10-09T03:13:59;5.05;;;4.43;;
56653;SDS011;45096;52.302;4.634;2023-10-09T03:16:25;5.47;;;4.57;;
56653;SDS011;45096;52.302;4.634;2023-10-09T03:18:51;4.78;;;3.75;;
56653;SDS011;45096;52.302;4.634;2023-10-09T03:21:17;7.47;;;4.88;;
56653;SDS011;45096;52.302;4.634;2023-10-09T03:23:44;6.55;;;4.78;;
56653;SDS011;45096;52.302;4.634;2023-10-09T03:26:10;6.80;;;4.43;;
56653;SDS011;45096;52.302;4.634;2023-10-09T03:28:36;8.32;;;4.60;;
56653;SDS011;45096;52.302;4.634;2023-10-09T03:31:01;4.93;;;4.03;;
56653;SDS011;45096;52.302;4.634;2023-10-09T03:33:26;5.35;;;4.30;;
56653;SDS011;45096;52.302;4.634;2023-10-09T03:35:52;7.00;;;5.43;;
56653;SDS011;45096;52.302;4.634;2023-10-09T03:38:17;6.07;;;4.82;;
56653;SDS011;45096;52.302;4.634;2023-10-09T03:40:44;7.57;;;4.95;;
56653;SDS011;45096;52.302;4.634;2023-10-09T03:43:10;6.82;;;5.47;;
56653;SDS011;45096;52.302;4.634;2023-10-09T03:45:35;7.25;;;5.65;;
56653;SDS011;45096;52.302;4.634;2023-10-09T03:48:01;6.82;;;4.85;;
56653;SDS011;45096;52.302;4.634;2023-10-09T03:50:26;5.82;;;4.55;;
56653;SDS011;45096;52.302;4.634;2023-10-09T03:52:52;6.95;;;4.60;;
56653;SDS011;45096;52.302;4.634;2023-10-09T03:55:18;7.28;;;4.53;;
56653;SDS011;45096;52.302;4.634;2023-10-09T03:57:45;7.38;;;4.32;;
56653;SDS011;45096;52.302;4.634;2023-10-09T04:00:11;7.97;;;5.00;;
56653;SDS011;45096;52.302;4.634;2023-10-09T04:02:37;5.80;;;4.35;;
56653;SDS011;45096;52.302;4.634;2023-10-09T04:05:02;7.15;;;5.10;;
56653;SDS011;45096;52.302;4.634;2023-10-09T04:07:28;8.80;;;5.32;;
56653;SDS011;45096;52.302;4.634;2023-10-09T04:09:53;4.78;;;4.18;;
56653;SDS011;45096;52.302;4.634;2023-10-09T04:12:19;5.60;;;4.45;;
56653;SDS011;45096;52.302;4.634;2023-10-09T04:14:46;7.20;;;4.43;;
56653;SDS011;45096;52.302;4.634;2023-10-09T04:17:11;5.03;;;4.35;;
56653;SDS011;45096;52.302;4.634;2023-10-09T04:19:36;4.60;;;4.18;;
56653;SDS011;45096;52.302;4.634;2023-10-09T04:22:02;7.40;;;4.63;;
56653;SDS011;45096;52.302;4.634;2023-10-09T04:24:27;7.35;;;5.00;;
56653;SDS011;45096;52.302;4.634;2023-10-09T04:26:53;7.30;;;4.32;;
56653;SDS011;45096;52.302;4.634;2023-10-09T04:29:18;8.23;;;4.30;;
56653;SDS011;45096;52.302;4.634;2023-10-09T04:31:45;5.32;;;4.13;;
56653;SDS011;45096;52.302;4.634;2023-10-09T04:34:11;3.78;;;3.38;;
56653;SDS011;45096;52.302;4.634;2023-10-09T04:36:36;4.78;;;4.38;;
56653;SDS011;45096;52.302;4.634;2023-10-09T04:39:02;5.20;;;4.40;;
56653;SDS011;45096;52.302;4.634;2023-10-09T04:41:27;4.95;;;4.07;;
56653;SDS011;45096;52.302;4.634;2023-10-09T04:43:53;6.80;;;4.68;;
56653;SDS011;45096;52.302;4.634;2023-10-09T04:46:18;4.75;;;4.20;;
56653;SDS011;45096;52.302;4.634;2023-10-09T04:48:45;4.97;;;4.15;;
56653;SDS011;45096;52.302;4.634;2023-10-09T04:51:10;5.90;;;4.35;;
56653;SDS011;45096;52.302;4.634;2023-10-09T04:53:36;7.43;;;4.55;;
56653;SDS011;45096;52.302;4.634;2023-10-09T04:56:01;7.25;;;4.13;;
56653;SDS011;45096;52.302;4.634;2023-10-09T04:58:26;6.30;;;4.45;;
56653;SDS011;45096;52.302;4.634;2023-10-09T05:00:52;8.23;;;4.63;;
56653;SDS011;45096;52.302;4.634;2023-10-09T05:03:18;5.07;;;4.65;;
56653;SDS011;45096;52.302;4.634;2023-10-09T05:05:45;5.45;;;4.20;;
56653;SDS011;45096;52.302;4.634;2023-10-09T05:08:11;6.70;;;4.18;;
56653;SDS011;45096;52.302;4.634;2023-10-09T05:10:37;4.47;;;3.65;;
56653;SDS011;45096;52.302;4.634;2023-10-09T05:13:02;6.72;;;5.03;;
56653;SDS011;45096;52.302;4.634;2023-10-09T05:15:28;5.13;;;4.10;;
56653;SDS011;45096;52.302;4.634;2023-10-09T05:17:53;6.60;;;4.72;;
56653;SDS011;45096;52.302;4.634;2023-10-09T05:20:19;9.63;;;3.97;;
56653;SDS011;45096;52.302;4.634;2023-10-09T05:22:45;5.32;;;4.03;;
56653;SDS011;45096;52.302;4.634;2023-10-09T05:25:11;8.90;;;5.05;;
56653;SDS011;45096;52.302;4.634;2023-10-09T05:27:36;4.90;;;4.50;;
56653;SDS011;45096;52.302;4.634;2023-10-09T05:30:02;7.80;;;4.35;;
56653;SDS011;45096;52.302;4.634;2023-10-09T05:32:28;8.95;;;4.93;;
56653;SDS011;45096;52.302;4.634;2023-10-09T05:34:53;5.53;;;4.70;;
56653;SDS011;45096;52.302;4.634;2023-10-09T05:37:19;6.10;;;4.55;;
56653;SDS011;45096;52.302;4.634;2023-10-09T05:39:46;5.30;;;3.88;;
56653;SDS011;45096;52.302;4.634;2023-10-09T05:42:11;5.70;;;4.32;;
56653;SDS011;45096;52.302;4.634;2023-10-09T05:44:37;9.40;;;4.63;;
56653;SDS011;45096;52.302;4.634;2023-10-09T05:47:02;5.90;;;4.35;;
56653;SDS011;45096;52.302;4.634;2023-10-09T05:49:28;7.78;;;4.82;;
56653;SDS011;45096;52.302;4.634;2023-10-09T05:51:53;5.75;;;4.15;;
56653;SDS011;45096;52.302;4.634;2023-10-09T05:54:19;5.25;;;3.80;;
56653;SDS011;45096;52.302;4.634;2023-10-09T05:56:46;6.07;;;4.05;;
56653;SDS011;45096;52.302;4.634;2023-10-09T05:59:11;5.53;;;3.88;;
56653;SDS011;45096;52.302;4.634;2023-10-09T06:01:37;5.75;;;3.97;;
56653;SDS011;45096;52.302;4.634;2023-10-09T06:04:02;6.32;;;4.20;;
56653;SDS011;45096;52.302;4.634;2023-10-09T06:06:28;5.35;;;4.45;;
56653;SDS011;45096;52.302;4.634;2023-10-09T06:08:53;5.63;;;3.90;;
56653;SDS011;45096;52.302;4.634;2023-10-09T06:11:18;4.07;;;3.53;;
56653;SDS011;45096;52.302;4.634;2023-10-09T06:13:45;4.80;;;4.30;;
56653;SDS011;45096;52.302;4.634;2023-10-09T06:16:11;3.83;;;3.42;;
56653;SDS011;45096;52.302;4.634;2023-10-09T06:18:36;4.60;;;3.58;;
56653;SDS011;45096;52.302;4.634;2023-10-09T06:21:01;4.22;;;3.88;;
56653;SDS011;45096;52.302;4.634;2023-10-09T06:23:27;5.72;;;3.83;;
56653;SDS011;45096;52.302;4.634;2023-10-09T06:25:52;4.88;;;4.15;;
56653;SDS011;45096;52.302;4.634;2023-10-09T06:28:18;6.28;;;4.18;;
56653;SDS011;45096;52.302;4.634;2023-10-09T06:30:45;5.65;;;3.95;;
56653;SDS011;45096;52.302;4.634;2023-10-09T06:33:10;4.82;;;3.95;;
56653;SDS011;45096;52.302;4.634;2023-10-09T06:35:35;6.00;;;4.32;;
56653;SDS011;45096;52.302;4.634;2023-10-09T06:38:01;5.88;;;4.30;;
56653;SDS011;45096;52.302;4.634;2023-10-09T06:40:27;5.47;;;4.60;;
56653;SDS011;45096;52.302;4.634;2023-10-09T06:42:52;5.10;;;4.32;;
56653;SDS011;45096;52.302;4.634;2023-10-09T06:45:18;5.13;;;4.40;;
56653;SDS011;45096;52.302;4.634;2023-10-09T06:47:47;4.53;;;3.97;;
56653;SDS011;45096;52.302;4.634;2023-10-09T06:50:13;5.90;;;4.05;;
56653;SDS011;45096;52.302;4.634;2023-10-09T06:52:39;8.30;;;4.30;;
56653;SDS011;45096;52.302;4.634;2023-10-09T06:55:04;7.13;;;4.70;;
56653;SDS011;45096;52.302;4.634;2023-10-09T06:57:30;5.05;;;4.00;;
56653;SDS011;45096;52.302;4.634;2023-10-09T06:59:56;6.18;;;4.53;;
56653;SDS011;45096;52.302;4.634;2023-10-09T07:02:21;7.13;;;4.30;;
56653;SDS011;45096;52.302;4.634;2023-10-09T07:04:48;6.32;;;4.20;;
56653;SDS011;45096;52.302;4.634;2023-10-09T07:07:14;5.30;;;4.03;;
56653;SDS011;45096;52.302;4.634;2023-10-09T07:09:39;5.97;;;4.53;;
56653;SDS011;45096;52.302;4.634;2023-10-09T07:12:04;6.20;;;4.40;;
56653;SDS011;45096;52.302;4.634;2023-10-09T07:14:30;5.53;;;4.03;;
56653;SDS011;45096;52.302;4.634;2023-10-09T07:16:56;7.10;;;4.57;;
56653;SDS011;45096;52.302;4.634;2023-10-09T07:19:21;5.80;;;3.90;;
56653;SDS011;45096;52.302;4.634;2023-10-09T07:21:48;4.20;;;3.30;;
56653;SDS011;45096;52.302;4.634;2023-10-09T07:24:14;6.70;;;4.10;;
56653;SDS011;45096;52.302;4.634;2023-10-09T07:26:39;6.10;;;4.10;;
56653;SDS011;45096;52.302;4.634;2023-10-09T07:29:05;5.00;;;3.63;;
56653;SDS011;45096;52.302;4.634;2023-10-09T07:31:30;5.35;;;3.75;;
56653;SDS011;45096;52.302;4.634;2023-10-09T07:33:55;6.18;;;4.30;;
56653;SDS011;45096;52.302;4.634;2023-10-09T07:36:21;4.70;;;4.20;;
56653;SDS011;45096;52.302;4.634;2023-10-09T07:38:48;6.35;;;3.75;;
56653;SDS011;45096;52.302;4.634;2023-10-09T07:41:13;4.93;;;4.13;;
56653;SDS011;45096;52.302;4.634;2023-10-09T07:43:38;6.95;;;4.30;;
56653;SDS011;45096;52.302;4.634;2023-10-09T07:46:04;5.00;;;4.38;;
56653;SDS011;45096;52.302;4.634;2023-10-09T07:48:30;6.35;;;4.88;;
56653;SDS011;45096;52.302;4.634;2023-10-09T07:50:55;6.45;;;4.18;;
56653;SDS011;45096;52.302;4.634;2023-10-09T07:53:21;7.45;;;5.03;;
56653;SDS011;45096;52.302;4.634;2023-10-09T07:55:47;6.25;;;4.53;;
56653;SDS011;45096;52.302;4.634;2023-10-09T07:58:13;5.18;;;4.25;;
56653;SDS011;45096;52.302;4.634;2023-10-09T08:00:38;5.63;;;3.80;;
56653;SDS011;45096;52.302;4.634;2023-10-09T08:03:04;5.38;;;4.28;;
56653;SDS011;45096;52.302;4.634;2023-10-09T08:05:29;8.23;;;4.40;;
56653;SDS011;45096;52.302;4.634;2023-10-09T08:07:54;6.35;;;4.93;;
56653;SDS011;45096;52.302;4.634;2023-10-09T08:10:20;5.93;;;4.40;;
56653;SDS011;45096;52.302;4.634;2023-10-09T08:12:47;6.25;;;4.70;;
56653;SDS011;45096;52.302;4.634;2023-10-09T08:15:12;7.80;;;4.80;;
56653;SDS011;45096;52.302;4.634;2023-10-09T08:17:38;6.50;;;4.40;;
56653;SDS011;45096;52.302;4.634;2023-10-09T08:20:04;8.65;;;4.68;;
56653;SDS011;45096;52.302;4.634;2023-10-09T08:22:30;7.28;;;4.30;;
56653;SDS011;45096;52.302;4.634;2023-10-09T08:24:56;5.35;;;4.20;;
56653;SDS011;45096;52.302;4.634;2023-10-09T08:27:21;6.47;;;4.40;;
56653;SDS011;45096;52.302;4.634;2023-10-09T08:29:48;6.45;;;4.13;;
56653;SDS011;45096;52.302;4.634;2023-10-09T08:32:13;5.00;;;4.00;;
56653;SDS011;45096;52.302;4.634;2023-10-09T08:34:39;4.40;;;3.95;;
56653;SDS011;45096;52.302;4.634;2023-10-09T08:37:04;6.43;;;4.68;;
56653;SDS011;45096;52.302;4.634;2023-10-09T08:39:30;6.80;;;4.60;;
56653;SDS011;45096;52.302;4.634;2023-10-09T08:41:55;6.40;;;3.92;;
56653;SDS011;45096;52.302;4.634;2023-10-09T08:44:21;8.25;;;4.45;;
56653;SDS011;45096;52.302;4.634;2023-10-09T08:46:48;6.03;;;4.57;;
56653;SDS011;45096;52.302;4.634;2023-10-09T08:49:14;8.20;;;5.43;;
56653;SDS011;45096;52.302;4.634;2023-10-09T08:51:40;7.30;;;4.90;;
56653;SDS011;45096;52.302;4.634;2023-10-09T08:54:06;6.30;;;4.07;;
56653;SDS011;45096;52.302;4.634;2023-10-09T08:56:32;6.82;;;4.30;;
56653;SDS011;45096;52.302;4.634;2023-10-09T08:58:58;5.35;;;4.78;;
56653;SDS011;45096;52.302;4.634;2023-10-09T09:01:24;6.25;;;4.10;;
56653;SDS011;45096;52.302;4.634;2023-10-09T09:03:51;5.50;;;4.70;;
56653;SDS011;45096;52.302;4.634;2023-10-09T09:06:18;7.07;;;5.18;;
56653;SDS011;45096;52.302;4.634;2023-10-09T09:08:43;6.22;;;4.63;;
56653;SDS011;45096;52.302;4.634;2023-10-09T09:11:09;5.75;;;4.85;;
56653;SDS011;45096;52.302;4.634;2023-10-09T09:13:36;7.72;;;4.95;;
56653;SDS011;45096;52.302;4.634;2023-10-09T09:16:01;8.35;;;5.47;;
56653;SDS011;45096;52.302;4.634;2023-10-09T09:18:27;7.80;;;4.47;;
56653;SDS011;45096;52.302;4.634;2023-10-09T09:20:54;8.30;;;4.55;;
56653;SDS011;45096;52.302;4.634;2023-10-09T09:23:19;8.07;;;5.78;;
56653;SDS011;45096;52.302;4.634;2023-10-09T09:25:45;8.52;;;5.20;;
56653;SDS011;45096;52.302;4.634;2023-10-09T09:28:11;5.60;;;4.53;;
56653;SDS011;45096;52.302;4.634;2023-10-09T09:30:37;4.85;;;4.30;;
56653;SDS011;45096;52.302;4.634;2023-10-09T09:33:16;7.65;;;4.78;;
56653;SDS011;45096;52.302;4.634;2023-10-09T09:35:53;8.82;;;4.80;;
56653;SDS011;45096;52.302;4.634;2023-10-09T09:38:20;7.32;;;4.82;;
56653;SDS011;45096;52.302;4.634;2023-10-09T09:40:46;7.10;;;4.97;;
56653;SDS011;45096;52.302;4.634;2023-10-09T09:43:12;8.63;;;5.00;;
56653;SDS011;45096;52.302;4.634;2023-10-09T09:45:38;7.22;;;4.97;;
56653;SDS011;45096;52.302;4.634;2023-10-09T09:48:04;9.23;;;4.93;;
56653;SDS011;45096;52.302;4.634;2023-10-09T09:50:30;6.70;;;5.20;;
56653;SDS011;45096;52.302;4.634;2023-10-09T09:52:57;6.18;;;5.07;;
56653;SDS011;45096;52.302;4.634;2023-10-09T09:55:24;5.47;;;4.30;;
56653;SDS011;45096;52.302;4.634;2023-10-09T09:57:50;5.80;;;4.28;;
56653;SDS011;45096;52.302;4.634;2023-10-09T10:00:15;8.00;;;5.15;;
56653;SDS011;45096;52.302;4.634;2023-10-09T10:02:41;8.75;;;4.57;;
56653;SDS011;45096;52.302;4.634;2023-10-09T10:05:07;7.03;;;5.28;;
56653;SDS011;45096;52.302;4.634;2023-10-09T10:07:34;6.43;;;5.32;;
56653;SDS011;45096;52.302;4.634;2023-10-09T10:10:01;6.45;;;4.63;;
56653;SDS011;45096;52.302;4.634;2023-10-09T10:15:14;6.65;;;4.63;;
56653;SDS011;45096;52.302;4.634;2023-10-09T10:17:52;5.10;;;4.45;;
56653;SDS011;45096;52.302;4.634;2023-10-09T10:20:32;6.05;;;4.63;;
56653;SDS011;45096;52.302;4.634;2023-10-09T10:25:51;9.82;;;5.38;;
56653;SDS011;45096;52.302;4.634;2023-10-09T10:28:17;6.18;;;5.15;;
56653;SDS011;45096;52.302;4.634;2023-10-09T10:30:45;7.32;;;5.03;;
56653;SDS011;45096;52.302;4.634;2023-10-09T10:33:11;8.70;;;5.28;;
56653;SDS011;45096;52.302;4.634;2023-10-09T10:35:36;6.15;;;4.70;;
56653;SDS011;45096;52.302;4.634;2023-10-09T10:38:02;6.43;;;5.10;;
56653;SDS011;45096;52.302;4.634;2023-10-09T10:40:27;6.78;;;5.28;;
56653;SDS011;45096;52.302;4.634;2023-10-09T10:42:54;8.20;;;5.05;;
56653;SDS011;45096;52.302;4.634;2023-10-09T10:45:20;8.10;;;5.05;;
56653;SDS011;45096;52.302;4.634;2023-10-09T10:47:45;7.43;;;4.93;;
56653;SDS011;45096;52.302;4.634;2023-10-09T10:50:12;8.52;;;5.50;;
56653;SDS011;45096;52.302;4.634;2023-10-09T10:52:37;12.05;;;5.60;;
56653;SDS011;45096;52.302;4.634;2023-10-09T10:55:09;9.23;;;5.13;;
56653;SDS011;45096;52.302;4.634;2023-10-09T10:57:36;9.95;;;5.30;;
56653;SDS011;45096;52.302;4.634;2023-10-09T11:00:09;10.18;;;5.78;;
56653;SDS011;45096;52.302;4.634;2023-10-09T11:02:35;8.68;;;5.55;;
56653;SDS011;45096;52.302;4.634;2023-10-09T11:05:01;6.70;;;5.03;;
56653;SDS011;45096;52.302;4.634;2023-10-09T11:07:26;6.28;;;5.32;;
56653;SDS011;45096;52.302;4.634;2023-10-09T11:09:53;8.82;;;5.00;;
56653;SDS011;45096;52.302;4.634;2023-10-09T11:12:19;9.85;;;4.55;;
56653;SDS011;45096;52.302;4.634;2023-10-09T11:14:45;8.05;;;5.40;;
56653;SDS011;45096;52.302;4.634;2023-10-09T11:17:15;9.80;;;5.68;;
56653;SDS011;45096;52.302;4.634;2023-10-09T11:19:41;8.52;;;4.70;;
56653;SDS011;45096;52.302;4.634;2023-10-09T11:22:07;9.63;;;5.18;;
56653;SDS011;45096;52.302;4.634;2023-10-09T11:24:32;7.57;;;5.05;;
56653;SDS011;45096;52.302;4.634;2023-10-09T11:26:58;6.60;;;4.88;;
56653;SDS011;45096;52.302;4.634;2023-10-09T11:29:24;5.90;;;4.50;;
56653;SDS011;45096;52.302;4.634;2023-10-09T11:31:59;6.68;;;5.03;;
56653;SDS011;45096;52.302;4.634;2023-10-09T11:34:26;7.65;;;5.78;;
56653;SDS011;45096;52.302;4.634;2023-10-09T11:36:52;9.38;;;5.38;;
56653;SDS011;45096;52.302;4.634;2023-10-09T11:39:23;9.10;;;4.97;;
56653;SDS011;45096;52.302;4.634;2023-10-09T11:41:49;10.35;;;4.90;;
56653;SDS011;45096;52.302;4.634;2023-10-09T11:44:15;7.57;;;5.22;;
56653;SDS011;45096;52.302;4.634;2023-10-09T11:46:40;9.30;;;5.60;;
56653;SDS011;45096;52.302;4.634;2023-10-09T11:49:22;7.93;;;5.60;;
56653;SDS011;45096;52.302;4.634;2023-10-09T11:51:48;7.47;;;4.85;;
56653;SDS011;45096;52.302;4.634;2023-10-09T11:54:27;6.88;;;4.68;;
56653;SDS011;45096;52.302;4.634;2023-10-09T11:56:54;8.25;;;5.53;;
56653;SDS011;45096;52.302;4.634;2023-10-09T11:59:19;8.52;;;4.95;;
56653;SDS011;45096;52.302;4.634;2023-10-09T12:01:45;8.73;;;5.38;;
56653;SDS011;45096;52.302;4.634;2023-10-09T12:04:11;8.63;;;5.22;;
56653;SDS011;45096;52.302;4.634;2023-10-09T12:06:36;8.40;;;4.93;;
56653;SDS011;45096;52.302;4.634;2023-10-09T12:09:03;8.07;;;5.10;;
56653;SDS011;45096;52.302;4.634;2023-10-09T12:11:28;6.53;;;5.07;;
56653;SDS011;45096;52.302;4.634;2023-10-09T12:13:54;6.15;;;4.90;;
56653;SDS011;45096;52.302;4.634;2023-10-09T12:16:19;7.88;;;5.78;;
56653;SDS011;45096;52.302;4.634;2023-10-09T12:18:45;10.60;;;6.03;;
56653;SDS011;45096;52.302;4.634;2023-10-09T12:21:10;9.68;;;5.03;;
56653;SDS011;45096;52.302;4.634;2023-10-09T12:23:36;8.13;;;5.38;;
56653;SDS011;45096;52.302;4.634;2023-10-09T12:26:02;9.32;;;5.38;;
56653;SDS011;45096;52.302;4.634;2023-10-09T12:28:28;5.75;;;5.15;;
56653;SDS011;45096;52.302;4.634;2023-10-09T12:30:54;7.15;;;5.22;;
56653;SDS011;45096;52.302;4.634;2023-10-09T12:33:19;10.05;;;4.95;;
56653;SDS011;45096;52.302;4.634;2023-10-09T12:35:46;12.20;;;5.53;;
56653;SDS011;45096;52.302;4.634;2023-10-09T12:38:11;6.47;;;4.82;;
56653;SDS011;45096;52.302;4.634;2023-10-09T12:40:37;8.75;;;5.05;;
56653;SDS011;45096;52.302;4.634;2023-10-09T12:43:04;6.70;;;5.13;;
56653;SDS011;45096;52.302;4.634;2023-10-09T12:45:29;8.05;;;5.55;;
56653;SDS011;45096;52.302;4.634;2023-10-09T12:47:58;8.45;;;5.40;;
56653;SDS011;45096;52.302;4.634;2023-10-09T12:50:24;11.05;;;5.25;;
56653;SDS011;45096;52.302;4.634;2023-10-09T12:52:50;12.60;;;5.43;;
56653;SDS011;45096;52.302;4.634;2023-10-09T12:55:15;6.15;;;4.90;;
56653;SDS011;45096;52.302;4.634;2023-10-09T12:57:41;11.50;;;5.43;;
56653;SDS011;45096;52.302;4.634;2023-10-09T13:00:08;11.63;;;5.70;;
56653;SDS011;45096;52.302;4.634;2023-10-09T13:02:34;14.85;;;5.80;;
56653;SDS011;45096;52.302;4.634;2023-10-09T13:04:59;8.70;;;5.50;;
56653;SDS011;45096;52.302;4.634;2023-10-09T13:07:25;14.93;;;5.53;;
56653;SDS011;45096;52.302;4.634;2023-10-09T13:09:50;7.43;;;4.90;;
56653;SDS011;45096;52.302;4.634;2023-10-09T13:12:15;8.18;;;4.93;;
56653;SDS011;45096;52.302;4.634;2023-10-09T13:14:41;8.55;;;4.80;;
56653;SDS011;45096;52.302;4.634;2023-10-09T13:17:08;7.05;;;5.38;;
56653;SDS011;45096;52.302;4.634;2023-10-09T13:19:33;8.27;;;5.53;;
56653;SDS011;45096;52.302;4.634;2023-10-09T13:21:59;7.13;;;5.88;;
56653;SDS011;45096;52.302;4.634;2023-10-09T13:24:24;10.55;;;5.75;;
56653;SDS011;45096;52.302;4.634;2023-10-09T13:26:49;10.35;;;5.65;;
56653;SDS011;45096;52.302;4.634;2023-10-09T13:29:15;6.43;;;5.05;;
56653;SDS011;45096;52.302;4.634;2023-10-09T13:31:40;6.78;;;5.55;;
56653;SDS011;45096;52.302;4.634;2023-10-09T13:34:07;6.28;;;4.72;;
56653;SDS011;45096;52.302;4.634;2023-10-09T13:36:32;6.38;;;5.40;;
56653;SDS011;45096;52.302;4.634;2023-10-09T13:38:58;6.88;;;5.45;;
56653;SDS011;45096;52.302;4.634;2023-10-09T13:41:24;7.43;;;5.57;;
56653;SDS011;45096;52.302;4.634;2023-10-09T13:43:49;7.15;;;4.88;;
56653;SDS011;45096;52.302;4.634;2023-10-09T13:46:14;7.78;;;5.90;;
56653;SDS011;45096;52.302;4.634;2023-10-09T13:48:40;8.60;;;5.82;;
56653;SDS011;45096;52.302;4.634;2023-10-09T13:51:07;9.65;;;5.72;;
56653;SDS011;45096;52.302;4.634;2023-10-09T13:53:33;9.05;;;5.80;;
56653;SDS011;45096;52.302;4.634;2023-10-09T13:55:58;8.25;;;5.30;;
56653;SDS011;45096;52.302;4.634;2023-10-09T13:58:24;7.95;;;5.43;;
56653;SDS011;45096;52.302;4.634;2023-10-09T14:00:49;9.25;;;5.53;;
56653;SDS011;45096;52.302;4.634;2023-10-09T14:03:14;11.80;;;5.72;;
56653;SDS011;45096;52.302;4.634;2023-10-09T14:05:40;8.25;;;5.93;;
56653;SDS011;45096;52.302;4.634;2023-10-09T14:08:07;8.38;;;5.68;;
56653;SDS011;45096;52.302;4.634;2023-10-09T14:10:32;7.03;;;5.07;;
56653;SDS011;45096;52.302;4.634;2023-10-09T14:12:58;8.70;;;5.63;;
56653;SDS011;45096;52.302;4.634;2023-10-09T14:15:23;9.85;;;5.40;;
56653;SDS011;45096;52.302;4.634;2023-10-09T14:17:48;9.35;;;5.65;;
56653;SDS011;45096;52.302;4.634;2023-10-09T14:20:14;10.85;;;6.10;;
56653;SDS011;45096;52.302;4.634;2023-10-09T14:22:40;9.90;;;5.93;;
56653;SDS011;45096;52.302;4.634;2023-10-09T14:25:07;12.18;;;5.68;;
56653;SDS011;45096;52.302;4.634;2023-10-09T14:27:33;8.43;;;5.45;;
56653;SDS011;45096;52.302;4.634;2023-10-09T14:29:58;7.70;;;5.90;;
56653;SDS011;45096;52.302;4.634;2023-10-09T14:32:24;8.50;;;5.28;;
56653;SDS011;45096;52.302;4.634;2023-10-09T14:34:49;6.35;;;5.75;;
56653;SDS011;45096;52.302;4.634;2023-10-09T14:37:15;8.65;;;5.55;;
56653;SDS011;45096;52.302;4.634;2023-10-09T14:39:40;9.23;;;5.10;;
56653;SDS011;45096;52.302;4.634;2023-10-09T14:42:07;10.18;;;6.18;;
56653;SDS011;45096;52.302;4.634;2023-10-09T14:44:32;8.95;;;6.03;;
56653;SDS011;45096;52.302;4.634;2023-10-09T14:46:58;12.55;;;6.30;;